sensor_id;sensor_type;location;lat;lon;timestamp;pressure;altitude;pressure_sealevel;temperature;humidity
48027;BME280;50714;49.208;5.364;2023-01-28T00:08:13;100251.84;;;4.09;82.82
48027;BME280;50714;49.208;5.364;2023-01-28T00:18:14;100249.34;;;4.08;83.37
48027;BME280;50714;49.208;5.364;2023-01-28T00:28:14;100241.31;;;4.08;82.86
48027;BME280;50714;49.208;5.364;2023-01-28T00:38:15;100249.34;;;4.08;83.05
48027;BME280;50714;49.208;5.364;2023-01-28T00:48:15;100248.63;;;4.06;82.61
48027;BME280;50714;49.208;5.364;2023-01-28T00:58:15;100243.03;;;3.99;83.00
48027;BME280;50714;49.208;5.364;2023-01-28T01:08:16;100249.66;;;3.95;82.83
48027;BME280;50714;49.208;5.364;2023-01-28T01:18:16;100243.75;;;3.92;82.41
48027;BME280;50714;49.208;5.364;2023-01-28T01:28:17;100246.84;;;3.87;82.65
48027;BME280;50714;49.208;5.364;2023-01-28T01:38:19;100245.84;;;3.88;82.66
48027;BME280;50714;49.208;5.364;2023-01-28T01:48:23;100261.72;;;3.90;82.31
48027;BME280;50714;49.208;5.364;2023-01-28T01:58:29;100262.84;;;3.87;82.33
48027;BME280;50714;49.208;5.364;2023-01-28T02:08:32;100253.44;;;3.83;82.15
48027;BME280;50714;49.208;5.364;2023-01-28T02:18:33;100249.53;;;3.78;82.12
48027;BME280;50714;49.208;5.364;2023-01-28T02:28:40;100261.88;;;3.78;82.66
48027;BME280;50714;49.208;5.364;2023-01-28T02:38:47;100252.47;;;3.74;83.00
48027;BME280;50714;49.208;5.364;2023-01-28T02:48:49;100254.31;;;3.74;82.75
48027;BME280;50714;49.208;5.364;2023-01-28T02:59:10;100255.69;;;3.68;82.15
48027;BME280;50714;49.208;5.364;2023-01-28T03:09:31;100257.78;;;3.55;82.46
48027;BME280;50714;49.208;5.364;2023-01-28T03:19:31;100259.78;;;3.53;82.66
48027;BME280;50714;49.208;5.364;2023-01-28T03:29:53;100285.88;;;3.59;82.51
48027;BME280;50714;49.208;5.364;2023-01-28T03:40:14;100278.88;;;3.58;82.69
48027;BME280;50714;49.208;5.364;2023-01-28T03:50:14;100286.88;;;3.58;82.21
48027;BME280;50714;49.208;5.364;2023-01-28T04:00:15;100288.16;;;3.54;82.60
48027;BME280;50714;49.208;5.364;2023-01-28T04:10:17;100297.28;;;3.52;82.74
48027;BME280;50714;49.208;5.364;2023-01-28T04:20:17;100304.00;;;3.46;82.30
48027;BME280;50714;49.208;5.364;2023-01-28T04:30:18;100313.97;;;3.44;82.63
48027;BME280;50714;49.208;5.364;2023-01-28T04:40:18;100330.81;;;3.45;82.54
48027;BME280;50714;49.208;5.364;2023-01-28T04:50:18;100324.50;;;3.46;82.59
48027;BME280;50714;49.208;5.364;2023-01-28T05:00:19;100337.16;;;3.43;82.38
48027;BME280;50714;49.208;5.364;2023-01-28T05:10:20;100335.47;;;3.42;82.53
48027;BME280;50714;49.208;5.364;2023-01-28T05:20:21;100345.28;;;3.42;82.66
48027;BME280;50714;49.208;5.364;2023-01-28T05:30:21;100355.97;;;3.42;83.39
48027;BME280;50714;49.208;5.364;2023-01-28T05:40:22;100361.56;;;3.39;82.59
48027;BME280;50714;49.208;5.364;2023-01-28T05:50:22;100366.75;;;3.40;82.83
48027;BME280;50714;49.208;5.364;2023-01-28T06:00:22;100375.59;;;3.41;82.54
48027;BME280;50714;49.208;5.364;2023-01-28T06:10:24;100392.16;;;3.35;82.58
48027;BME280;50714;49.208;5.364;2023-01-28T06:20:25;100394.53;;;3.28;82.47
48027;BME280;50714;49.208;5.364;2023-01-28T06:30:25;100402.53;;;3.28;82.94
48027;BME280;50714;49.208;5.364;2023-01-28T06:40:26;100395.09;;;3.32;82.57
48027;BME280;50714;49.208;5.364;2023-01-28T06:50:26;100408.03;;;3.36;82.33
48027;BME280;50714;49.208;5.364;2023-01-28T07:00:27;100420.66;;;3.34;82.30
48027;BME280;50714;49.208;5.364;2023-01-28T07:10:27;100439.34;;;3.34;82.36
48027;BME280;50714;49.208;5.364;2023-01-28T07:20:28;100456.91;;;3.37;81.79
48027;BME280;50714;49.208;5.364;2023-01-28T07:30:28;100450.84;;;3.35;82.13
48027;BME280;50714;49.208;5.364;2023-01-28T07:40:29;100463.22;;;3.36;82.05
48027;BME280;50714;49.208;5.364;2023-01-28T07:50:31;100453.50;;;3.35;81.10
48027;BME280;50714;49.208;5.364;2023-01-28T08:00:35;100462.38;;;3.35;80.88
48027;BME280;50714;49.208;5.364;2023-01-28T08:10:36;100465.81;;;3.47;81.45
48027;BME280;50714;49.208;5.364;2023-01-28T08:20:36;100458.25;;;3.62;80.81
48027;BME280;50714;49.208;5.364;2023-01-28T08:30:37;100463.09;;;3.78;80.47
48027;BME280;50714;49.208;5.364;2023-01-28T08:40:38;100467.09;;;4.12;80.82
48027;BME280;50714;49.208;5.364;2023-01-28T08:50:38;100455.69;;;6.08;83.13
48027;BME280;50714;49.208;5.364;2023-01-28T09:00:40;100469.44;;;8.04;72.34
48027;BME280;50714;49.208;5.364;2023-01-28T09:10:41;100490.78;;;6.50;71.66
48027;BME280;50714;49.208;5.364;2023-01-28T09:20:41;100488.00;;;5.32;72.81
48027;BME280;50714;49.208;5.364;2023-01-28T09:30:41;100489.66;;;4.67;74.00
48027;BME280;50714;49.208;5.364;2023-01-28T09:40:42;100507.78;;;4.35;74.70
48027;BME280;50714;49.208;5.364;2023-01-28T09:50:47;100510.72;;;4.32;74.04
48027;BME280;50714;49.208;5.364;2023-01-28T10:00:59;100524.22;;;4.30;74.41
48027;BME280;50714;49.208;5.364;2023-01-28T10:21:49;100532.81;;;5.01;72.82
48027;BME280;50714;49.208;5.364;2023-01-28T10:31:53;100518.41;;;8.90;76.31
48027;BME280;50714;49.208;5.364;2023-01-28T10:41:54;100512.59;;;8.36;63.87
48027;BME280;50714;49.208;5.364;2023-01-28T10:51:54;100535.69;;;6.48;66.56
48027;BME280;50714;49.208;5.364;2023-01-28T11:02:04;100531.34;;;5.82;65.09
48027;BME280;50714;49.208;5.364;2023-01-28T11:12:22;100530.75;;;5.52;66.32
48027;BME280;50714;49.208;5.364;2023-01-28T11:32:32;100532.72;;;4.84;68.07
48027;BME280;50714;49.208;5.364;2023-01-28T11:42:33;100532.84;;;4.82;68.34
48027;BME280;50714;49.208;5.364;2023-01-28T12:44:15;100508.50;;;4.85;67.45
48027;BME280;50714;49.208;5.364;2023-01-28T12:54:23;100502.16;;;4.76;66.72
48027;BME280;50714;49.208;5.364;2023-01-28T13:04:36;100507.53;;;4.67;65.75
48027;BME280;50714;49.208;5.364;2023-01-28T13:14:39;100498.50;;;4.58;65.57
48027;BME280;50714;49.208;5.364;2023-01-28T13:24:40;100508.63;;;4.55;66.50
48027;BME280;50714;49.208;5.364;2023-01-28T13:34:41;100512.84;;;4.57;66.19
48027;BME280;50714;49.208;5.364;2023-01-28T13:44:43;100516.53;;;4.66;66.53
48027;BME280;50714;49.208;5.364;2023-01-28T13:54:50;100532.44;;;4.67;65.36
48027;BME280;50714;49.208;5.364;2023-01-28T14:05:15;100542.28;;;4.48;65.32
48027;BME280;50714;49.208;5.364;2023-01-28T14:15:52;100555.34;;;4.51;65.13
48027;BME280;50714;49.208;5.364;2023-01-28T14:26:14;100575.28;;;4.37;65.20
48027;BME280;50714;49.208;5.364;2023-01-28T14:36:17;100581.72;;;4.15;65.58
48027;BME280;50714;49.208;5.364;2023-01-28T14:46:28;100565.22;;;4.10;66.11
48027;BME280;50714;49.208;5.364;2023-01-28T14:57:09;100559.19;;;4.08;65.31
48027;BME280;50714;49.208;5.364;2023-01-28T15:07:24;100571.34;;;3.91;65.43
48027;BME280;50714;49.208;5.364;2023-01-28T15:17:26;100575.84;;;3.60;65.97
48027;BME280;50714;49.208;5.364;2023-01-28T15:27:28;100586.72;;;3.48;66.06
48027;BME280;50714;49.208;5.364;2023-01-28T15:37:29;100585.19;;;3.24;65.57
48027;BME280;50714;49.208;5.364;2023-01-28T15:47:31;100578.53;;;3.19;65.72
48027;BME280;50714;49.208;5.364;2023-01-28T15:57:34;100600.22;;;3.25;65.20
48027;BME280;50714;49.208;5.364;2023-01-28T16:07:43;100607.47;;;3.02;64.58
48027;BME280;50714;49.208;5.364;2023-01-28T16:17:46;100594.88;;;3.04;65.05
48027;BME280;50714;49.208;5.364;2023-01-28T16:27:48;100589.69;;;2.92;64.73
48027;BME280;50714;49.208;5.364;2023-01-28T16:37:48;100608.56;;;2.68;64.19
48027;BME280;50714;49.208;5.364;2023-01-28T16:47:50;100640.34;;;2.60;65.03
48027;BME280;50714;49.208;5.364;2023-01-28T16:57:53;100643.97;;;2.59;65.88
48027;BME280;50714;49.208;5.364;2023-01-28T17:07:54;100639.63;;;2.58;66.07
48027;BME280;50714;49.208;5.364;2023-01-28T17:17:58;100646.97;;;2.65;65.01
48027;BME280;50714;49.208;5.364;2023-01-28T17:27:58;100653.31;;;2.53;64.76
48027;BME280;50714;49.208;5.364;2023-01-28T17:37:59;100653.19;;;2.21;65.85
48027;BME280;50714;49.208;5.364;2023-01-28T17:47:59;100624.03;;;1.97;65.75
48027;BME280;50714;49.208;5.364;2023-01-28T17:57:59;100633.34;;;1.92;67.25
48027;BME280;50714;49.208;5.364;2023-01-28T18:08:00;100640.22;;;1.72;67.02
48027;BME280;50714;49.208;5.364;2023-01-28T18:18:00;100663.25;;;1.38;68.30
48027;BME280;50714;49.208;5.364;2023-01-28T18:28:00;100693.03;;;1.19;68.89
48027;BME280;50714;49.208;5.364;2023-01-28T18:38:01;100718.22;;;1.02;69.25
48027;BME280;50714;49.208;5.364;2023-01-28T18:48:01;100712.53;;;0.83;69.16
48027;BME280;50714;49.208;5.364;2023-01-28T18:58:02;100722.09;;;0.86;69.04
48027;BME280;50714;49.208;5.364;2023-01-28T19:08:04;100714.63;;;0.67;70.06
48027;BME280;50714;49.208;5.364;2023-01-28T19:18:05;100690.72;;;0.54;70.42
48027;BME280;50714;49.208;5.364;2023-01-28T19:28:08;100707.19;;;0.59;71.00
48027;BME280;50714;49.208;5.364;2023-01-28T19:38:08;100713.50;;;0.46;70.70
48027;BME280;50714;49.208;5.364;2023-01-28T19:48:09;100727.00;;;0.30;70.94
48027;BME280;50714;49.208;5.364;2023-01-28T19:58:09;100742.38;;;0.25;71.09
48027;BME280;50714;49.208;5.364;2023-01-28T20:08:10;100736.13;;;0.39;71.31
48027;BME280;50714;49.208;5.364;2023-01-28T20:18:11;100728.47;;;0.34;71.18
48027;BME280;50714;49.208;5.364;2023-01-28T20:28:11;100728.91;;;0.41;70.80
48027;BME280;50714;49.208;5.364;2023-01-28T20:38:12;100748.97;;;0.32;71.33
48027;BME280;50714;49.208;5.364;2023-01-28T20:48:13;100751.13;;;0.14;72.55
48027;BME280;50714;49.208;5.364;2023-01-28T20:58:14;100751.88;;;0.16;73.04
48027;BME280;50714;49.208;5.364;2023-01-28T21:08:14;100762.56;;;0.27;73.42
48027;BME280;50714;49.208;5.364;2023-01-28T21:18:15;100768.84;;;0.26;73.40
48027;BME280;50714;49.208;5.364;2023-01-28T21:28:16;100777.66;;;0.40;73.38
48027;BME280;50714;49.208;5.364;2023-01-28T21:38:16;100772.22;;;0.54;74.37
48027;BME280;50714;49.208;5.364;2023-01-28T21:48:17;100763.81;;;0.60;73.57
48027;BME280;50714;49.208;5.364;2023-01-28T21:58:17;100755.50;;;0.77;73.19
48027;BME280;50714;49.208;5.364;2023-01-28T22:08:36;100759.09;;;0.89;73.26
48027;BME280;50714;49.208;5.364;2023-01-28T22:18:37;100753.09;;;0.98;72.59
48027;BME280;50714;49.208;5.364;2023-01-28T22:28:37;100740.09;;;1.06;72.44
48027;BME280;50714;49.208;5.364;2023-01-28T22:38:37;100754.78;;;0.99;72.91
48027;BME280;50714;49.208;5.364;2023-01-28T22:48:38;100749.84;;;0.94;73.22
48027;BME280;50714;49.208;5.364;2023-01-28T22:58:39;100737.44;;;1.06;72.72
48027;BME280;50714;49.208;5.364;2023-01-28T23:08:40;100722.34;;;1.07;71.88
48027;BME280;50714;49.208;5.364;2023-01-28T23:18:40;100707.97;;;1.09;70.97
48027;BME280;50714;49.208;5.364;2023-01-28T23:28:59;100713.19;;;1.11;71.36
48027;BME280;50714;49.208;5.364;2023-01-28T23:38:59;100702.69;;;0.96;71.23
48027;BME280;50714;49.208;5.364;2023-01-28T23:49:00;100705.34;;;0.96;72.04
48027;BME280;50714;49.208;5.364;2023-01-28T23:59:01;100701.16;;;0.94;71.81
